sensor_id;sensor_type;location;lat;lon;timestamp;temperature;humidity
73137;DHT22;67767;45.636;11.756;2023-03-11T00:01:50;12.50;84.50
73137;DHT22;67767;45.636;11.756;2023-03-11T00:04:16;12.40;84.50
73137;DHT22;67767;45.636;11.756;2023-03-11T00:06:41;12.50;84.50
73137;DHT22;67767;45.636;11.756;2023-03-11T00:09:07;12.50;84.90
73137;DHT22;67767;45.636;11.756;2023-03-11T00:11:33;12.50;85.00
73137;DHT22;67767;45.636;11.756;2023-03-11T00:13:58;12.70;83.60
73137;DHT22;67767;45.636;11.756;2023-03-11T00:16:24;12.80;83.70
73137;DHT22;67767;45.636;11.756;2023-03-11T00:18:50;12.60;84.80
73137;DHT22;67767;45.636;11.756;2023-03-11T00:21:17;12.60;84.70
73137;DHT22;67767;45.636;11.756;2023-03-11T00:23:44;12.60;84.90
73137;DHT22;67767;45.636;11.756;2023-03-11T00:26:09;12.50;84.80
73137;DHT22;67767;45.636;11.756;2023-03-11T00:28:35;12.50;85.20
73137;DHT22;67767;45.636;11.756;2023-03-11T00:31:01;12.40;85.30
73137;DHT22;67767;45.636;11.756;2023-03-11T00:33:27;12.30;85.30
73137;DHT22;67767;45.636;11.756;2023-03-11T00:35:53;12.30;85.40
73137;DHT22;67767;45.636;11.756;2023-03-11T00:38:19;12.40;85.10
73137;DHT22;67767;45.636;11.756;2023-03-11T00:40:46;12.40;85.20
73137;DHT22;67767;45.636;11.756;2023-03-11T00:43:12;12.40;84.80
73137;DHT22;67767;45.636;11.756;2023-03-11T00:45:38;12.40;85.00
73137;DHT22;67767;45.636;11.756;2023-03-11T00:48:05;12.30;85.20
73137;DHT22;67767;45.636;11.756;2023-03-11T00:50:33;12.30;85.30
73137;DHT22;67767;45.636;11.756;2023-03-11T00:52:59;12.30;85.30
73137;DHT22;67767;45.636;11.756;2023-03-11T00:55:28;12.10;85.50
73137;DHT22;67767;45.636;11.756;2023-03-11T00:57:59;11.80;86.30
73137;DHT22;67767;45.636;11.756;2023-03-11T01:00:27;11.50;87.90
73137;DHT22;67767;45.636;11.756;2023-03-11T01:02:54;11.50;88.00
73137;DHT22;67767;45.636;11.756;2023-03-11T01:05:22;11.50;88.10
73137;DHT22;67767;45.636;11.756;2023-03-11T01:07:48;11.70;87.90
73137;DHT22;67767;45.636;11.756;2023-03-11T01:10:14;11.80;87.40
73137;DHT22;67767;45.636;11.756;2023-03-11T01:12:40;11.90;87.10
73137;DHT22;67767;45.636;11.756;2023-03-11T01:15:07;11.80;87.00
73137;DHT22;67767;45.636;11.756;2023-03-11T01:17:33;11.80;86.40
73137;DHT22;67767;45.636;11.756;2023-03-11T01:19:59;11.80;86.60
73137;DHT22;67767;45.636;11.756;2023-03-11T01:22:25;11.80;86.20
73137;DHT22;67767;45.636;11.756;2023-03-11T01:24:50;11.80;86.50
73137;DHT22;67767;45.636;11.756;2023-03-11T01:27:16;11.80;86.80
73137;DHT22;67767;45.636;11.756;2023-03-11T01:29:42;11.80;87.00
73137;DHT22;67767;45.636;11.756;2023-03-11T01:32:09;11.80;87.00
73137;DHT22;67767;45.636;11.756;2023-03-11T01:34:35;11.70;87.00
73137;DHT22;67767;45.636;11.756;2023-03-11T01:37:02;11.70;86.90
73137;DHT22;67767;45.636;11.756;2023-03-11T01:39:28;11.90;86.70
73137;DHT22;67767;45.636;11.756;2023-03-11T01:41:53;11.90;86.30
73137;DHT22;67767;45.636;11.756;2023-03-11T01:44:21;11.70;86.40
73137;DHT22;67767;45.636;11.756;2023-03-11T01:49:20;11.50;87.40
73137;DHT22;67767;45.636;11.756;2023-03-11T01:51:55;11.50;87.20
73137;DHT22;67767;45.636;11.756;2023-03-11T01:54:28;11.60;86.80
73137;DHT22;67767;45.636;11.756;2023-03-11T01:56:55;11.60;86.60
73137;DHT22;67767;45.636;11.756;2023-03-11T01:59:28;11.60;86.60
73137;DHT22;67767;45.636;11.756;2023-03-11T02:02:17;11.40;87.60
73137;DHT22;67767;45.636;11.756;2023-03-11T02:04:45;11.30;87.60
73137;DHT22;67767;45.636;11.756;2023-03-11T02:07:11;11.40;87.40
73137;DHT22;67767;45.636;11.756;2023-03-11T02:09:38;11.30;87.10
73137;DHT22;67767;45.636;11.756;2023-03-11T02:12:05;11.20;86.90
73137;DHT22;67767;45.636;11.756;2023-03-11T02:14:32;11.20;86.90
73137;DHT22;67767;45.636;11.756;2023-03-11T02:16:59;11.20;87.10
73137;DHT22;67767;45.636;11.756;2023-03-11T02:22:32;11.10;87.10
73137;DHT22;67767;45.636;11.756;2023-03-11T02:27:38;11.00;86.30
73137;DHT22;67767;45.636;11.756;2023-03-11T02:30:06;10.90;86.60
73137;DHT22;67767;45.636;11.756;2023-03-11T02:32:33;11.00;86.60
73137;DHT22;67767;45.636;11.756;2023-03-11T02:34:58;11.10;86.40
73137;DHT22;67767;45.636;11.756;2023-03-11T02:37:24;11.00;86.40
73137;DHT22;67767;45.636;11.756;2023-03-11T02:39:52;10.80;86.20
73137;DHT22;67767;45.636;11.756;2023-03-11T02:45:13;10.50;87.20
73137;DHT22;67767;45.636;11.756;2023-03-11T02:47:40;10.50;87.30
73137;DHT22;67767;45.636;11.756;2023-03-11T02:50:10;10.50;87.20
73137;DHT22;67767;45.636;11.756;2023-03-11T02:52:36;10.50;86.70
73137;DHT22;67767;45.636;11.756;2023-03-11T02:55:02;10.30;86.90
73137;DHT22;67767;45.636;11.756;2023-03-11T02:57:28;10.20;86.60
73137;DHT22;67767;45.636;11.756;2023-03-11T02:59:54;10.00;86.70
73137;DHT22;67767;45.636;11.756;2023-03-11T03:02:20;10.00;86.60
73137;DHT22;67767;45.636;11.756;2023-03-11T03:04:45;9.90;86.70
73137;DHT22;67767;45.636;11.756;2023-03-11T03:07:11;9.90;86.80
73137;DHT22;67767;45.636;11.756;2023-03-11T03:09:37;9.90;87.20
73137;DHT22;67767;45.636;11.756;2023-03-11T03:12:03;10.00;87.30
73137;DHT22;67767;45.636;11.756;2023-03-11T03:14:29;10.00;86.90
73137;DHT22;67767;45.636;11.756;2023-03-11T03:16:55;9.90;86.80
73137;DHT22;67767;45.636;11.756;2023-03-11T03:19:21;10.10;86.90
73137;DHT22;67767;45.636;11.756;2023-03-11T03:21:46;10.00;87.50
73137;DHT22;67767;45.636;11.756;2023-03-11T03:24:12;9.90;87.20
73137;DHT22;67767;45.636;11.756;2023-03-11T03:26:38;10.00;87.40
73137;DHT22;67767;45.636;11.756;2023-03-11T03:29:04;10.00;87.30
73137;DHT22;67767;45.636;11.756;2023-03-11T03:31:30;9.90;86.70
73137;DHT22;67767;45.636;11.756;2023-03-11T03:33:56;9.80;86.30
73137;DHT22;67767;45.636;11.756;2023-03-11T03:36:22;9.70;87.20
73137;DHT22;67767;45.636;11.756;2023-03-11T03:38:52;9.70;87.60
73137;DHT22;67767;45.636;11.756;2023-03-11T03:41:17;9.60;87.70
73137;DHT22;67767;45.636;11.756;2023-03-11T03:43:43;9.60;87.80
73137;DHT22;67767;45.636;11.756;2023-03-11T03:46:09;9.60;87.30
73137;DHT22;67767;45.636;11.756;2023-03-11T03:48:35;9.40;87.90
73137;DHT22;67767;45.636;11.756;2023-03-11T03:51:05;9.50;88.20
73137;DHT22;67767;45.636;11.756;2023-03-11T03:53:33;9.50;87.90
73137;DHT22;67767;45.636;11.756;2023-03-11T03:56:07;9.60;87.20
73137;DHT22;67767;45.636;11.756;2023-03-11T03:58:33;9.70;87.00
73137;DHT22;67767;45.636;11.756;2023-03-11T04:00:59;9.80;86.80
73137;DHT22;67767;45.636;11.756;2023-03-11T04:03:26;9.80;87.00
73137;DHT22;67767;45.636;11.756;2023-03-11T04:05:53;9.70;86.50
73137;DHT22;67767;45.636;11.756;2023-03-11T04:08:18;9.50;87.30
73137;DHT22;67767;45.636;11.756;2023-03-11T04:10:55;9.50;87.90
73137;DHT22;67767;45.636;11.756;2023-03-11T04:13:20;9.50;87.40
73137;DHT22;67767;45.636;11.756;2023-03-11T04:15:46;9.50;87.30
73137;DHT22;67767;45.636;11.756;2023-03-11T04:18:12;9.50;87.60
73137;DHT22;67767;45.636;11.756;2023-03-11T04:20:38;9.70;87.80
73137;DHT22;67767;45.636;11.756;2023-03-11T04:23:04;9.80;87.10
73137;DHT22;67767;45.636;11.756;2023-03-11T04:25:29;9.70;86.90
73137;DHT22;67767;45.636;11.756;2023-03-11T04:27:55;9.70;86.80
73137;DHT22;67767;45.636;11.756;2023-03-11T04:30:21;9.60;87.80
73137;DHT22;67767;45.636;11.756;2023-03-11T04:32:46;9.80;87.40
73137;DHT22;67767;45.636;11.756;2023-03-11T04:35:12;9.90;87.30
73137;DHT22;67767;45.636;11.756;2023-03-11T04:37:38;9.80;86.90
73137;DHT22;67767;45.636;11.756;2023-03-11T04:40:04;9.80;87.40
73137;DHT22;67767;45.636;11.756;2023-03-11T04:42:31;9.80;87.50
73137;DHT22;67767;45.636;11.756;2023-03-11T04:44:56;9.80;87.00
73137;DHT22;67767;45.636;11.756;2023-03-11T04:47:22;9.80;87.40
73137;DHT22;67767;45.636;11.756;2023-03-11T04:49:48;9.90;87.60
73137;DHT22;67767;45.636;11.756;2023-03-11T04:52:14;9.90;87.50
73137;DHT22;67767;45.636;11.756;2023-03-11T04:54:39;10.00;87.70
73137;DHT22;67767;45.636;11.756;2023-03-11T04:57:05;10.00;87.60
73137;DHT22;67767;45.636;11.756;2023-03-11T04:59:31;10.00;88.00
73137;DHT22;67767;45.636;11.756;2023-03-11T05:01:57;10.10;87.70
73137;DHT22;67767;45.636;11.756;2023-03-11T05:04:22;10.00;87.70
73137;DHT22;67767;45.636;11.756;2023-03-11T05:06:48;10.00;87.30
73137;DHT22;67767;45.636;11.756;2023-03-11T05:09:16;10.10;87.10
73137;DHT22;67767;45.636;11.756;2023-03-11T05:11:42;10.20;86.60
73137;DHT22;67767;45.636;11.756;2023-03-11T05:14:08;10.20;86.50
73137;DHT22;67767;45.636;11.756;2023-03-11T05:16:33;10.20;86.50
73137;DHT22;67767;45.636;11.756;2023-03-11T05:18:59;10.20;86.50
73137;DHT22;67767;45.636;11.756;2023-03-11T05:21:25;10.20;86.70
73137;DHT22;67767;45.636;11.756;2023-03-11T05:23:50;10.10;86.80
73137;DHT22;67767;45.636;11.756;2023-03-11T05:26:16;10.00;87.20
73137;DHT22;67767;45.636;11.756;2023-03-11T05:28:42;10.00;87.00
73137;DHT22;67767;45.636;11.756;2023-03-11T05:31:08;10.00;87.30
73137;DHT22;67767;45.636;11.756;2023-03-11T05:33:34;10.00;87.20
73137;DHT22;67767;45.636;11.756;2023-03-11T05:36:07;10.00;87.00
73137;DHT22;67767;45.636;11.756;2023-03-11T05:38:35;9.90;86.90
73137;DHT22;67767;45.636;11.756;2023-03-11T05:41:01;9.80;87.00
73137;DHT22;67767;45.636;11.756;2023-03-11T05:43:27;9.80;86.80
73137;DHT22;67767;45.636;11.756;2023-03-11T05:45:53;9.80;87.30
73137;DHT22;67767;45.636;11.756;2023-03-11T05:48:18;9.70;87.90
73137;DHT22;67767;45.636;11.756;2023-03-11T05:50:44;9.90;88.20
73137;DHT22;67767;45.636;11.756;2023-03-11T05:53:10;10.00;87.50
73137;DHT22;67767;45.636;11.756;2023-03-11T05:55:35;9.90;87.70
73137;DHT22;67767;45.636;11.756;2023-03-11T05:58:01;9.90;87.60
73137;DHT22;67767;45.636;11.756;2023-03-11T06:00:27;10.10;87.20
73137;DHT22;67767;45.636;11.756;2023-03-11T06:02:53;10.20;87.20
73137;DHT22;67767;45.636;11.756;2023-03-11T06:05:19;10.20;86.70
73137;DHT22;67767;45.636;11.756;2023-03-11T06:07:45;10.40;86.50
73137;DHT22;67767;45.636;11.756;2023-03-11T06:10:11;10.40;86.40
73137;DHT22;67767;45.636;11.756;2023-03-11T06:12:37;10.50;85.50
73137;DHT22;67767;45.636;11.756;2023-03-11T06:15:05;10.50;85.50
73137;DHT22;67767;45.636;11.756;2023-03-11T06:17:31;10.30;85.80
73137;DHT22;67767;45.636;11.756;2023-03-11T06:19:56;10.20;85.90
73137;DHT22;67767;45.636;11.756;2023-03-11T06:22:22;10.10;86.20
73137;DHT22;67767;45.636;11.756;2023-03-11T06:24:48;10.30;85.70
73137;DHT22;67767;45.636;11.756;2023-03-11T06:27:14;10.50;85.60
73137;DHT22;67767;45.636;11.756;2023-03-11T06:29:39;10.40;85.10
73137;DHT22;67767;45.636;11.756;2023-03-11T06:32:05;10.40;85.10
73137;DHT22;67767;45.636;11.756;2023-03-11T06:34:31;10.60;85.30
73137;DHT22;67767;45.636;11.756;2023-03-11T06:36:57;10.80;84.70
73137;DHT22;67767;45.636;11.756;2023-03-11T06:39:24;10.80;85.10
73137;DHT22;67767;45.636;11.756;2023-03-11T06:41:50;10.90;85.00
73137;DHT22;67767;45.636;11.756;2023-03-11T06:44:15;11.10;84.80
73137;DHT22;67767;45.636;11.756;2023-03-11T06:46:41;11.30;84.30
73137;DHT22;67767;45.636;11.756;2023-03-11T06:49:07;11.20;84.50
73137;DHT22;67767;45.636;11.756;2023-03-11T06:51:32;11.00;84.50
73137;DHT22;67767;45.636;11.756;2023-03-11T06:53:58;10.80;84.50
73137;DHT22;67767;45.636;11.756;2023-03-11T06:56:24;10.90;84.30
73137;DHT22;67767;45.636;11.756;2023-03-11T06:58:50;11.10;84.50
73137;DHT22;67767;45.636;11.756;2023-03-11T07:01:21;11.10;84.30
73137;DHT22;67767;45.636;11.756;2023-03-11T07:03:48;11.50;83.80
73137;DHT22;67767;45.636;11.756;2023-03-11T07:06:25;11.60;83.60
73137;DHT22;67767;45.636;11.756;2023-03-11T07:08:52;11.60;83.30
73137;DHT22;67767;45.636;11.756;2023-03-11T07:11:19;11.70;83.30
73137;DHT22;67767;45.636;11.756;2023-03-11T07:13:45;11.80;83.30
73137;DHT22;67767;45.636;11.756;2023-03-11T07:16:13;11.80;83.30
73137;DHT22;67767;45.636;11.756;2023-03-11T07:18:41;12.00;83.30
73137;DHT22;67767;45.636;11.756;2023-03-11T07:21:07;12.20;83.10
73137;DHT22;67767;45.636;11.756;2023-03-11T07:23:34;12.40;82.60
73137;DHT22;67767;45.636;11.756;2023-03-11T07:26:00;12.50;82.50
73137;DHT22;67767;45.636;11.756;2023-03-11T07:28:26;12.60;82.30
73137;DHT22;67767;45.636;11.756;2023-03-11T07:30:53;12.90;81.00
73137;DHT22;67767;45.636;11.756;2023-03-11T07:33:19;13.00;80.70
73137;DHT22;67767;45.636;11.756;2023-03-11T07:35:45;13.10;80.30
73137;DHT22;67767;45.636;11.756;2023-03-11T07:38:14;13.30;80.30
73137;DHT22;67767;45.636;11.756;2023-03-11T07:40:41;13.60;80.10
73137;DHT22;67767;45.636;11.756;2023-03-11T07:43:06;13.70;79.40
73137;DHT22;67767;45.636;11.756;2023-03-11T07:45:32;13.80;79.10
73137;DHT22;67767;45.636;11.756;2023-03-11T07:47:58;14.10;78.80
73137;DHT22;67767;45.636;11.756;2023-03-11T07:50:24;14.20;77.70
73137;DHT22;67767;45.636;11.756;2023-03-11T07:52:50;14.20;78.00
73137;DHT22;67767;45.636;11.756;2023-03-11T07:55:15;14.60;78.10
73137;DHT22;67767;45.636;11.756;2023-03-11T07:57:41;14.40;78.00
73137;DHT22;67767;45.636;11.756;2023-03-11T08:00:08;14.40;77.60
73137;DHT22;67767;45.636;11.756;2023-03-11T08:02:34;14.30;77.70
73137;DHT22;67767;45.636;11.756;2023-03-11T08:05:00;14.10;77.90
73137;DHT22;67767;45.636;11.756;2023-03-11T08:07:25;14.30;78.20
73137;DHT22;67767;45.636;11.756;2023-03-11T08:09:51;14.50;78.30
73137;DHT22;67767;45.636;11.756;2023-03-11T08:12:17;14.40;77.90
73137;DHT22;67767;45.636;11.756;2023-03-11T08:14:42;14.40;78.10
73137;DHT22;67767;45.636;11.756;2023-03-11T08:17:09;14.40;78.40
73137;DHT22;67767;45.636;11.756;2023-03-11T08:19:35;14.40;78.50
73137;DHT22;67767;45.636;11.756;2023-03-11T08:22:03;14.30;78.40
73137;DHT22;67767;45.636;11.756;2023-03-11T08:24:29;14.50;78.50
73137;DHT22;67767;45.636;11.756;2023-03-11T08:26:55;14.60;78.10
73137;DHT22;67767;45.636;11.756;2023-03-11T08:29:22;14.50;77.90
73137;DHT22;67767;45.636;11.756;2023-03-11T08:31:48;14.50;77.90
73137;DHT22;67767;45.636;11.756;2023-03-11T08:34:14;14.50;77.60
73137;DHT22;67767;45.636;11.756;2023-03-11T08:36:40;14.50;77.20
73137;DHT22;67767;45.636;11.756;2023-03-11T08:39:06;14.60;76.40
73137;DHT22;67767;45.636;11.756;2023-03-11T08:41:32;14.60;76.60
73137;DHT22;67767;45.636;11.756;2023-03-11T08:43:58;14.70;76.30
73137;DHT22;67767;45.636;11.756;2023-03-11T08:46:32;14.80;76.30
73137;DHT22;67767;45.636;11.756;2023-03-11T08:48:58;14.80;75.90
73137;DHT22;67767;45.636;11.756;2023-03-11T08:51:25;14.70;75.90
73137;DHT22;67767;45.636;11.756;2023-03-11T08:53:52;14.90;75.80
73137;DHT22;67767;45.636;11.756;2023-03-11T08:56:19;15.10;75.40
73137;DHT22;67767;45.636;11.756;2023-03-11T08:58:45;15.50;73.90
73137;DHT22;67767;45.636;11.756;2023-03-11T09:01:11;15.70;73.80
73137;DHT22;67767;45.636;11.756;2023-03-11T09:03:37;16.00;73.70
73137;DHT22;67767;45.636;11.756;2023-03-11T09:06:06;16.10;73.40
73137;DHT22;67767;45.636;11.756;2023-03-11T09:08:32;16.30;73.20
73137;DHT22;67767;45.636;11.756;2023-03-11T09:10:58;16.40;73.60
73137;DHT22;67767;45.636;11.756;2023-03-11T09:13:24;16.60;73.40
73137;DHT22;67767;45.636;11.756;2023-03-11T09:15:50;16.60;73.40
73137;DHT22;67767;45.636;11.756;2023-03-11T09:18:16;16.60;73.50
73137;DHT22;67767;45.636;11.756;2023-03-11T09:20:44;16.60;73.70
73137;DHT22;67767;45.636;11.756;2023-03-11T09:23:12;16.70;73.80
73137;DHT22;67767;45.636;11.756;2023-03-11T09:25:38;16.70;73.70
73137;DHT22;67767;45.636;11.756;2023-03-11T09:28:04;16.60;73.70
73137;DHT22;67767;45.636;11.756;2023-03-11T09:30:29;16.80;73.40
73137;DHT22;67767;45.636;11.756;2023-03-11T09:32:56;16.70;73.30
73137;DHT22;67767;45.636;11.756;2023-03-11T09:35:21;16.60;74.00
73137;DHT22;67767;45.636;11.756;2023-03-11T09:37:47;16.90;73.70
73137;DHT22;67767;45.636;11.756;2023-03-11T09:40:19;16.70;74.10
73137;DHT22;67767;45.636;11.756;2023-03-11T09:42:56;16.60;74.10
73137;DHT22;67767;45.636;11.756;2023-03-11T09:45:29;17.00;74.00
73137;DHT22;67767;45.636;11.756;2023-03-11T09:48:03;17.10;74.00
73137;DHT22;67767;45.636;11.756;2023-03-11T09:50:55;17.20;73.70
73137;DHT22;67767;45.636;11.756;2023-03-11T09:53:42;17.70;73.30
73137;DHT22;67767;45.636;11.756;2023-03-11T09:56:17;17.60;73.20
73137;DHT22;67767;45.636;11.756;2023-03-11T09:58:50;17.70;73.20
73137;DHT22;67767;45.636;11.756;2023-03-11T10:01:24;17.70;73.30
73137;DHT22;67767;45.636;11.756;2023-03-11T10:03:55;17.80;72.90
73137;DHT22;67767;45.636;11.756;2023-03-11T10:06:23;18.00;72.90
73137;DHT22;67767;45.636;11.756;2023-03-11T10:11:46;18.20;71.40
73137;DHT22;67767;45.636;11.756;2023-03-11T10:20:09;18.40;70.20
73137;DHT22;67767;45.636;11.756;2023-03-11T10:28:17;18.40;70.30
73137;DHT22;67767;45.636;11.756;2023-03-11T10:30:48;18.40;70.40
73137;DHT22;67767;45.636;11.756;2023-03-11T10:36:00;18.70;70.10
73137;DHT22;67767;45.636;11.756;2023-03-11T10:38:33;18.80;70.00
73137;DHT22;67767;45.636;11.756;2023-03-11T10:41:05;18.90;68.20
73137;DHT22;67767;45.636;11.756;2023-03-11T10:44:24;18.90;67.60
73137;DHT22;67767;45.636;11.756;2023-03-11T10:46:25;18.90;66.20
73137;DHT22;67767;45.636;11.756;2023-03-11T10:48:51;18.90;66.90
73137;DHT22;67767;45.636;11.756;2023-03-11T10:51:19;18.90;66.70
73137;DHT22;67767;45.636;11.756;2023-03-11T10:53:50;18.90;67.10
73137;DHT22;67767;45.636;11.756;2023-03-11T10:56:37;18.90;65.50
73137;DHT22;67767;45.636;11.756;2023-03-11T10:59:30;18.70;66.00
73137;DHT22;67767;45.636;11.756;2023-03-11T11:01:55;19.10;64.80
73137;DHT22;67767;45.636;11.756;2023-03-11T11:04:44;19.30;65.10
73137;DHT22;67767;45.636;11.756;2023-03-11T11:07:49;19.40;64.30
73137;DHT22;67767;45.636;11.756;2023-03-11T11:10:23;19.40;64.30
73137;DHT22;67767;45.636;11.756;2023-03-11T11:13:02;19.80;64.10
73137;DHT22;67767;45.636;11.756;2023-03-11T11:16:16;20.10;62.10
73137;DHT22;67767;45.636;11.756;2023-03-11T11:18:27;20.10;62.10
73137;DHT22;67767;45.636;11.756;2023-03-11T11:21:03;20.10;61.80
73137;DHT22;67767;45.636;11.756;2023-03-11T11:26:13;20.30;61.60
73137;DHT22;67767;45.636;11.756;2023-03-11T11:28:39;20.50;60.60
73137;DHT22;67767;45.636;11.756;2023-03-11T11:31:19;20.40;61.00
73137;DHT22;67767;45.636;11.756;2023-03-11T11:33:53;20.10;61.60
73137;DHT22;67767;45.636;11.756;2023-03-11T11:36:21;20.20;61.80
73137;DHT22;67767;45.636;11.756;2023-03-11T11:38:53;20.10;61.90
73137;DHT22;67767;45.636;11.756;2023-03-11T11:41:21;20.20;61.40
73137;DHT22;67767;45.636;11.756;2023-03-11T11:43:59;20.60;59.80
73137;DHT22;67767;45.636;11.756;2023-03-11T11:46:41;20.60;59.50
73137;DHT22;67767;45.636;11.756;2023-03-11T11:52:23;22.00;55.50
73137;DHT22;67767;45.636;11.756;2023-03-11T11:54:41;22.50;54.30
73137;DHT22;67767;45.636;11.756;2023-03-11T11:57:19;23.00;51.60
73137;DHT22;67767;45.636;11.756;2023-03-11T11:59:46;23.40;50.30
73137;DHT22;67767;45.636;11.756;2023-03-11T12:05:07;22.80;51.50
73137;DHT22;67767;45.636;11.756;2023-03-11T12:10:57;21.70;53.40
73137;DHT22;67767;45.636;11.756;2023-03-11T12:26:58;24.50;44.00
73137;DHT22;67767;45.636;11.756;2023-03-11T12:29:32;25.20;42.10
73137;DHT22;67767;45.636;11.756;2023-03-11T12:32:00;25.50;42.60
73137;DHT22;67767;45.636;11.756;2023-03-11T12:34:27;25.40;43.20
73137;DHT22;67767;45.636;11.756;2023-03-11T12:36:56;25.20;42.70
73137;DHT22;67767;45.636;11.756;2023-03-11T12:39:28;25.40;42.40
73137;DHT22;67767;45.636;11.756;2023-03-11T12:44:39;25.20;42.50
73137;DHT22;67767;45.636;11.756;2023-03-11T12:49:41;24.90;43.40
73137;DHT22;67767;45.636;11.756;2023-03-11T12:54:36;25.20;42.00
73137;DHT22;67767;45.636;11.756;2023-03-11T13:15:51;26.70;37.10
73137;DHT22;67767;45.636;11.756;2023-03-11T13:18:29;27.10;36.30
73137;DHT22;67767;45.636;11.756;2023-03-11T13:21:01;26.70;36.90
73137;DHT22;67767;45.636;11.756;2023-03-11T13:23:36;27.30;35.90
73137;DHT22;67767;45.636;11.756;2023-03-11T13:26:45;27.40;35.30
73137;DHT22;67767;45.636;11.756;2023-03-11T13:33:10;26.50;36.40
73137;DHT22;67767;45.636;11.756;2023-03-11T13:40:44;26.40;36.60
73137;DHT22;67767;45.636;11.756;2023-03-11T13:43:20;26.30;37.60
73137;DHT22;67767;45.636;11.756;2023-03-11T13:46:10;26.50;37.10
73137;DHT22;67767;45.636;11.756;2023-03-11T13:48:43;26.80;36.60
73137;DHT22;67767;45.636;11.756;2023-03-11T13:51:19;27.00;35.80
73137;DHT22;67767;45.636;11.756;2023-03-11T13:53:58;26.90;36.50
73137;DHT22;67767;45.636;11.756;2023-03-11T13:56:29;26.70;36.20
73137;DHT22;67767;45.636;11.756;2023-03-11T13:59:21;26.40;36.80
73137;DHT22;67767;45.636;11.756;2023-03-11T14:01:51;26.50;37.20
73137;DHT22;67767;45.636;11.756;2023-03-11T14:04:28;26.70;37.00
73137;DHT22;67767;45.636;11.756;2023-03-11T14:06:54;27.00;37.00
73137;DHT22;67767;45.636;11.756;2023-03-11T14:09:22;26.90;36.60
73137;DHT22;67767;45.636;11.756;2023-03-11T14:11:48;27.30;36.20
73137;DHT22;67767;45.636;11.756;2023-03-11T14:16:55;27.50;36.40
73137;DHT22;67767;45.636;11.756;2023-03-11T14:19:21;26.30;38.30
73137;DHT22;67767;45.636;11.756;2023-03-11T14:21:49;25.60;40.30
73137;DHT22;67767;45.636;11.756;2023-03-11T14:24:30;25.70;40.00
73137;DHT22;67767;45.636;11.756;2023-03-11T14:26:59;25.70;39.80
73137;DHT22;67767;45.636;11.756;2023-03-11T14:29:39;25.20;41.30
73137;DHT22;67767;45.636;11.756;2023-03-11T14:32:33;24.50;42.70
73137;DHT22;67767;45.636;11.756;2023-03-11T14:35:00;23.60;44.60
73137;DHT22;67767;45.636;11.756;2023-03-11T14:37:34;23.30;45.50
73137;DHT22;67767;45.636;11.756;2023-03-11T14:40:00;23.10;45.80
73137;DHT22;67767;45.636;11.756;2023-03-11T14:42:36;22.90;46.60
73137;DHT22;67767;45.636;11.756;2023-03-11T14:50:17;22.50;48.70
73137;DHT22;67767;45.636;11.756;2023-03-11T14:55:34;22.40;48.20
73137;DHT22;67767;45.636;11.756;2023-03-11T14:58:35;22.20;48.30
73137;DHT22;67767;45.636;11.756;2023-03-11T15:01:15;21.90;47.70
73137;DHT22;67767;45.636;11.756;2023-03-11T15:03:57;21.50;48.70
73137;DHT22;67767;45.636;11.756;2023-03-11T15:06:26;21.50;50.30
73137;DHT22;67767;45.636;11.756;2023-03-11T15:14:19;21.60;50.80
73137;DHT22;67767;45.636;11.756;2023-03-11T15:16:45;21.40;50.20
73137;DHT22;67767;45.636;11.756;2023-03-11T15:21:52;21.20;50.20
73137;DHT22;67767;45.636;11.756;2023-03-11T15:24:27;21.10;50.20
73137;DHT22;67767;45.636;11.756;2023-03-11T15:27:30;21.10;50.30
73137;DHT22;67767;45.636;11.756;2023-03-11T15:29:57;21.20;50.10
73137;DHT22;67767;45.636;11.756;2023-03-11T15:32:38;21.20;49.00
73137;DHT22;67767;45.636;11.756;2023-03-11T15:37:33;21.00;47.40
73137;DHT22;67767;45.636;11.756;2023-03-11T15:40:19;21.00;48.30
73137;DHT22;67767;45.636;11.756;2023-03-11T15:42:46;20.90;48.50
73137;DHT22;67767;45.636;11.756;2023-03-11T15:45:19;20.80;50.10
73137;DHT22;67767;45.636;11.756;2023-03-11T15:47:47;20.80;49.40
73137;DHT22;67767;45.636;11.756;2023-03-11T15:50:18;20.60;49.00
73137;DHT22;67767;45.636;11.756;2023-03-11T15:52:45;20.50;48.50
73137;DHT22;67767;45.636;11.756;2023-03-11T15:55:11;20.60;48.40
73137;DHT22;67767;45.636;11.756;2023-03-11T15:57:37;20.40;49.00
73137;DHT22;67767;45.636;11.756;2023-03-11T16:00:22;20.40;49.00
73137;DHT22;67767;45.636;11.756;2023-03-11T16:02:49;20.50;49.00
73137;DHT22;67767;45.636;11.756;2023-03-11T16:05:20;20.30;49.10
73137;DHT22;67767;45.636;11.756;2023-03-11T16:07:46;20.30;48.70
73137;DHT22;67767;45.636;11.756;2023-03-11T16:10:14;20.10;48.90
73137;DHT22;67767;45.636;11.756;2023-03-11T16:12:40;19.90;49.00
73137;DHT22;67767;45.636;11.756;2023-03-11T16:17:55;19.90;49.00
73137;DHT22;67767;45.636;11.756;2023-03-11T16:20:23;19.80;49.60
73137;DHT22;67767;45.636;11.756;2023-03-11T16:22:52;19.80;50.00
73137;DHT22;67767;45.636;11.756;2023-03-11T16:25:28;19.70;50.70
73137;DHT22;67767;45.636;11.756;2023-03-11T16:27:55;19.80;49.90
73137;DHT22;67767;45.636;11.756;2023-03-11T16:30:22;19.70;50.20
73137;DHT22;67767;45.636;11.756;2023-03-11T16:32:48;19.60;50.30
73137;DHT22;67767;45.636;11.756;2023-03-11T16:35:14;19.50;50.60
73137;DHT22;67767;45.636;11.756;2023-03-11T16:37:40;19.40;50.90
73137;DHT22;67767;45.636;11.756;2023-03-11T16:40:21;19.40;51.10
73137;DHT22;67767;45.636;11.756;2023-03-11T16:42:49;19.30;51.30
73137;DHT22;67767;45.636;11.756;2023-03-11T16:45:16;19.30;51.40
73137;DHT22;67767;45.636;11.756;2023-03-11T16:47:42;19.20;51.80
73137;DHT22;67767;45.636;11.756;2023-03-11T16:50:09;19.10;52.40
73137;DHT22;67767;45.636;11.756;2023-03-11T16:52:35;18.90;52.80
73137;DHT22;67767;45.636;11.756;2023-03-11T16:55:01;18.80;53.60
73137;DHT22;67767;45.636;11.756;2023-03-11T16:57:26;18.80;54.00
73137;DHT22;67767;45.636;11.756;2023-03-11T16:59:52;18.70;54.50
73137;DHT22;67767;45.636;11.756;2023-03-11T17:02:18;18.50;55.10
73137;DHT22;67767;45.636;11.756;2023-03-11T17:04:44;18.40;55.50
73137;DHT22;67767;45.636;11.756;2023-03-11T17:07:10;18.40;55.90
73137;DHT22;67767;45.636;11.756;2023-03-11T17:09:36;18.40;56.00
73137;DHT22;67767;45.636;11.756;2023-03-11T17:12:03;18.30;55.90
73137;DHT22;67767;45.636;11.756;2023-03-11T17:14:29;18.20;56.70
73137;DHT22;67767;45.636;11.756;2023-03-11T17:16:57;18.10;58.00
73137;DHT22;67767;45.636;11.756;2023-03-11T17:19:22;17.90;58.20
73137;DHT22;67767;45.636;11.756;2023-03-11T17:21:49;17.90;58.70